Latest Weather Observations for Cape Nelson

IDV60801

Issued at 6:35 pm EST Thursday 28 August 2014 (issued every 30 minutes, with the page automatically refreshed every 10 minutes)

About weather observations | Map of weather stations | Latest weather observations for VIC | Other Formats
Station Details ID: 090184 Name: CAPE NELSON LIGHTHOUSE Lat: -38.43 Lon: 141.54 Height: 45.4 m
Data from the previous 72 hours. | See also: Recent months at Cape Nelson
Date/Time
EST
Temp
°C
App
Temp
°C
Dew
Point
Rel
Hum
%
Delta-T
°C
Wind Press
QNH
hPa
Press
MSL
hPa
Rain
since 9 am
mm
Dir
 
Spd
km/h
Gust
km/h
Spd
kts
Gust
kts
28/06:30pm 11.6 9.6 8.8 83 1.4 NW 9 13 5 7 1028.1 1028.1 0.0
28/06:00pm 13.2 11.7 10.4 83 1.4 WNW 9 13 5 7 1027.8 1027.8 0.0
28/05:30pm 14.1 12.7 10.9 81 1.7 WNW 9 13 5 7 1027.6 1027.6 0.0
28/05:00pm 14.7 13.0 11.1 79 1.9 WNW 11 15 6 8 1027.5 1027.5 0.0
28/04:30pm 14.9 12.5 10.1 73 2.5 W 13 17 7 9 1027.3 1027.3 0.0
28/04:00pm 15.7 13.0 10.2 70 2.9 WNW 15 20 8 11 1027.3 1027.3 0.0
28/03:30pm 15.9 13.1 10.0 68 3.1 WNW 15 19 8 10 1027.2 1027.2 0.0
28/03:00pm 16.1 13.5 10.6 70 2.9 WNW 15 20 8 11 1027.3 1027.3 0.0
28/02:30pm 15.5 12.3 10.1 70 2.8 W 17 20 9 11 1027.5 1027.5 0.0
28/02:00pm 15.4 13.2 9.5 68 3.0 WNW 11 15 6 8 1027.7 1027.7 0.0
28/01:30pm 15.4 12.9 9.7 69 3.0 WNW 13 17 7 9 1027.7 1027.7 0.0
28/01:00pm 14.8 13.5 11.4 80 1.8 WNW 9 13 5 7 1028.0 1028.0 0.0
28/12:30pm 14.7 13.5 11.5 81 1.7 NW 9 13 5 7 1028.3 1028.3 0.0
28/12:00pm 14.5 13.2 11.3 81 1.7 NW 9 13 5 7 1028.5 1028.5 0.0
28/11:30am 14.5 13.6 11.3 81 1.7 N 7 11 4 6 1028.8 1028.8 0.0
28/11:00am 14.0 12.8 11.7 86 1.2 NNW 9 11 5 6 1029.0 1029.0 0.0
28/10:30am 13.6 12.7 11.5 87 1.1 NNE 7 9 4 5 1029.1 1029.1 0.0
28/10:00am 13.1 12.4 11.5 90 0.8 NE 6 7 3 4 1029.2 1029.2 0.0
28/09:30am 12.8 12.2 11.7 93 0.6 NE 6 7 3 4 1029.2 1029.2 0.0
28/09:00am 12.9 12.9 12.4 97 0.3 E 4 6 2 3 1029.2 1029.2 0.2
28/08:30am 10.3 10.4 10.0 98 0.2 CALM 0 0 0 0 1029.0 1029.0 0.2
28/08:00am 7.8 7.2 7.4 97 0.2 CALM 0 0 0 0 1028.9 1028.9 0.2
28/07:30am 7.5 6.4 7.1 97 0.2 NE 2 6 1 3 1028.7 1028.7 0.2
28/07:00am 6.9 4.9 6.3 96 0.3 NNE 6 6 3 3 1028.3 1028.3 0.2
28/06:30am 7.0 6.2 6.4 96 0.3 CALM 0 6 0 3 1028.1 1028.1 0.2
28/06:00am 7.3 5.4 6.7 96 0.3 N 6 7 3 4 1027.9 1027.9 0.2
28/05:30am 7.0 5.0 6.3 95 0.3 N 6 9 3 5 1027.8 1027.8 0.2
28/05:00am 7.3 4.8 6.4 94 0.4 N 9 11 5 6 1027.6 1027.6 0.2
28/04:30am 8.2 6.8 7.3 94 0.4 NNE 4 7 2 4 1027.7 1027.7 0.2
28/04:00am 9.2 7.7 8.4 95 0.4 NNW 6 9 3 5 1027.5 1027.5 0.2
28/03:30am 9.4 7.0 8.8 96 0.3 N 11 13 6 7 1027.4 1027.4 0.2
28/03:00am 9.4 6.6 8.6 95 0.4 N 13 15 7 8 1027.6 1027.6 0.2
28/02:30am 10.0 7.0 9.4 96 0.3 N 15 19 8 10 1027.6 1027.6 0.2
28/02:00am 9.9 6.9 9.3 96 0.3 N 15 19 8 10 1027.8 1027.8 0.2
28/01:30am 9.6 6.9 9.0 96 0.3 NNE 13 17 7 9 1028.0 1028.0 0.2
28/01:00am 9.4 6.7 8.8 96 0.3 N 13 15 7 8 1028.3 1028.3 0.2
28/12:30am 8.7 5.7 7.9 95 0.4 N 13 15 7 8 1028.5 1028.5 0.2
28/12:00am 8.7 5.7 7.9 95 0.4 NNE 13 15 7 8 1028.4 1028.4 0.2
 
Date/Time
EST
Temp
°C
App
Temp
°C
Dew
Point
Rel
Hum
%
Delta-T
°C
Wind Press
QNH
hPa
Press
MSL
hPa
Rain
since 9 am
mm
Dir
 
Spd
km/h
Gust
km/h
Spd
kts
Gust
kts
27/11:30pm 8.3 5.6 7.4 94 0.4 NNE 11 15 6 8 1028.7 1028.7 0.2
27/11:00pm 8.2 5.9 7.3 94 0.4 NNE 9 9 5 5 1028.8 1028.8 0.2
27/10:30pm 8.4 7.8 7.3 93 0.5 CALM 0 0 0 0 1028.8 1028.8 0.2
27/10:00pm 9.2 8.0 8.1 93 0.5 E 4 6 2 3 1028.7 1028.7 0.2
27/09:30pm 10.0 9.7 8.6 91 0.7 CALM 0 0 0 0 1028.6 1028.6 0.2
27/09:00pm 11.3 10.8 9.4 88 0.9 SE 2 7 1 4 1028.5 1028.5 0.2
27/08:30pm 12.7 11.4 11.1 90 0.8 S 9 15 5 8 1028.6 1028.6 0.2
27/08:00pm 12.9 12.0 11.5 91 0.7 SE 7 13 4 7 1028.5 1028.5 0.2
27/07:30pm 13.0 12.0 11.1 88 1.0 NE 7 11 4 6 1028.1 1028.1 0.2
27/07:00pm 13.1 12.1 11.0 87 1.1 NNE 7 11 4 6 1027.8 1027.8 0.2
27/06:30pm 13.3 12.0 11.2 87 1.1 NNW 9 13 5 7 1027.7 1027.7 0.2
27/06:00pm 13.6 11.9 11.1 85 1.3 WNW 11 15 6 8 1027.5 1027.5 0.2
27/05:30pm 13.9 12.2 11.1 83 1.5 W 11 17 6 9 1027.4 1027.4 0.2
27/05:00pm 14.1 12.4 11.1 82 1.6 W 11 13 6 7 1027.2 1027.2 0.2
27/04:30pm 14.9 13.6 11.3 79 1.9 W 9 13 5 7 1027.1 1027.1 0.2
27/04:00pm 15.5 13.8 11.1 75 2.3 W 11 17 6 9 1027.0 1027.0 0.2
27/03:30pm 15.7 13.9 10.9 73 2.6 WNW 11 15 6 8 1026.8 1026.8 0.2
27/03:00pm 15.9 13.3 10.7 71 2.8 W 15 20 8 11 1026.7 1026.7 0.2
27/02:30pm 15.4 11.7 9.5 68 3.1 W 19 22 10 12 1026.8 1026.8 0.2
27/02:00pm 15.2 11.5 9.3 68 3.0 W 19 22 10 12 1026.8 1026.8 0.2
27/01:30pm 15.9 13.0 9.6 66 3.3 W 15 19 8 10 1026.9 1026.9 0.2
27/01:00pm 16.6 14.4 10.7 68 3.1 WNW 13 19 7 10 1027.2 1027.2 0.2
27/12:30pm 16.6 14.0 10.7 68 3.2 NW 15 20 8 11 1027.6 1027.6 0.0
27/12:00pm 16.1 13.9 10.8 71 2.8 WNW 13 19 7 10 1027.9 1027.9 0.0
27/11:30am 16.6 13.6 10.5 67 3.2 NW 17 20 9 11 1027.9 1027.9 0.0
27/11:00am 16.0 12.6 9.2 64 3.5 NNW 17 26 9 14 1028.0 1028.0 0.0
27/10:30am 14.9 12.6 10.3 74 2.4 NNW 13 19 7 10 1028.2 1028.2 0.0
27/10:00am 13.4 11.4 10.2 81 1.6 NNW 11 13 6 7 1028.2 1028.2 0.0
27/09:30am 12.6 10.6 10.0 84 1.3 W 11 13 6 7 1028.0 1028.0 0.0
27/09:00am 13.0 10.8 10.7 86 1.2 NNW 13 15 7 8 1027.8 1027.8 0.2
27/08:30am 11.3 9.3 10.0 92 0.7 N 11 13 6 7 1027.6 1027.6 0.2
27/08:00am 9.6 6.9 8.8 95 0.4 NNW 13 15 7 8 1027.3 1027.3 0.2
27/07:30am 7.9 5.1 7.1 95 0.4 NNW 11 15 6 8 1027.0 1027.0 0.2
27/07:00am 7.1 3.8 6.2 94 0.4 N 13 13 7 7 1026.3 1026.4 0.2
27/06:30am 7.4 4.5 6.7 95 0.3 N 11 13 6 7 1026.1 1026.2 0.2
27/06:00am 7.7 4.9 7.1 96 0.3 N 11 13 6 7 1025.9 1026.0 0.2
27/05:30am 7.1 4.1 6.2 94 0.4 NNW 11 15 6 8 1025.9 1026.0 0.2
27/05:00am 7.7 4.9 7.0 95 0.3 NNW 11 13 6 7 1025.8 1025.9 0.2
27/04:30am 8.2 5.1 7.4 95 0.4 N 13 15 7 8 1025.8 1025.9 0.2
27/04:00am 8.4 5.8 7.6 95 0.4 N 11 13 6 7 1025.7 1025.8 0.2
27/03:30am 9.0 6.2 8.4 96 0.3 N 13 15 7 8 1025.7 1025.8 0.0
27/03:00am 9.0 5.8 8.4 96 0.3 N 15 17 8 9 1025.8 1025.9 0.0
27/02:30am 8.6 5.3 8.0 96 0.3 N 15 17 8 9 1026.0 1026.1 0.0
27/02:00am 8.4 5.4 7.6 95 0.4 NNE 13 15 7 8 1025.9 1026.0 0.0
27/01:30am 8.3 5.6 7.5 95 0.4 NNE 11 13 6 7 1026.0 1026.1 0.0
27/01:00am 8.5 6.2 7.6 94 0.4 NNE 9 11 5 6 1026.2 1026.3 0.0
27/12:30am 8.2 6.2 7.1 93 0.5 NNE 7 9 4 5 1026.3 1026.4 0.0
27/12:00am 9.0 7.2 8.1 94 0.4 NNE 7 9 4 5 1026.2 1026.3 0.0
 
Date/Time
EST
Temp
°C
App
Temp
°C
Dew
Point
Rel
Hum
%
Delta-T
°C
Wind Press
QNH
hPa
Press
MSL
hPa
Rain
since 9 am
mm
Dir
 
Spd
km/h
Gust
km/h
Spd
kts
Gust
kts
26/11:30pm 9.0 7.2 7.9 93 0.5 NNE 7 7 4 4 1026.4 1026.5 0.0
26/11:00pm 9.8 7.8 8.6 92 0.6 NE 9 9 5 5 1026.4 1026.5 0.0
26/10:30pm 10.4 8.9 9.2 92 0.6 NE 7 7 4 4 1026.5 1026.6 0.0
26/10:00pm 11.4 9.8 10.3 93 0.6 NE 9 11 5 6 1026.7 1026.7 0.0
26/09:30pm 12.2 11.4 11.1 93 0.6 NE 6 9 3 5 1026.5 1026.6 0.0
26/09:00pm 12.9 10.7 12.1 95 0.4 ENE 15 20 8 11 1026.4 1026.5 0.0
26/08:30pm 12.9 10.7 12.0 94 0.5 ENE 15 22 8 12 1026.4 1026.5 0.0
26/08:00pm 12.6 10.6 11.5 93 0.6 E 13 17 7 9 1026.4 1026.5 0.0
26/07:30pm 12.8 10.5 11.7 93 0.6 E 15 20 8 11 1026.4 1026.5 0.0
26/07:00pm 12.9 10.2 11.6 92 0.7 E 17 22 9 12 1026.4 1026.5 0.0
26/06:30pm 12.9 9.8 11.5 91 0.7 E 19 24 10 13 1025.9 1026.0 0.0
26/06:00pm 12.9 9.1 11.1 89 0.9 E 22 28 12 15 1025.7 1025.8 0.0
26/05:30pm 13.2 9.1 11.3 88 1.0 E 24 30 13 16 1025.5 1025.6 0.0
26/05:00pm 13.4 10.0 11.1 86 1.2 E 20 26 11 14 1025.7 1025.8 0.0
26/04:30pm 13.8 10.4 11.1 84 1.4 E 20 26 11 14 1025.5 1025.6 0.0
26/04:00pm 14.1 11.2 11.1 82 1.6 E 17 24 9 13 1025.8 1025.9 0.0
26/03:30pm 14.3 10.8 10.9 80 1.8 E 20 28 11 15 1025.9 1026.0 0.0
26/03:00pm 14.6 10.8 11.0 79 1.9 E 22 28 12 15 1026.1 1026.2 0.0
26/02:30pm 14.9 10.5 10.3 74 2.4 E 24 30 13 16 1026.2 1026.3 0.0
26/02:00pm 15.0 10.5 10.0 72 2.6 E 24 30 13 16 1026.4 1026.5 0.0
26/01:30pm 15.3 11.6 10.3 72 2.6 E 20 28 11 15 1026.4 1026.5 0.0
26/01:00pm 15.4 11.8 10.0 70 2.8 E 19 24 10 13 1027.1 1027.1 0.0
26/12:30pm 15.5 12.3 10.1 70 2.8 E 17 24 9 13 1027.7 1027.7 0.0
26/12:00pm 13.8 10.9 9.6 76 2.1 E 15 20 8 11 1028.2 1028.2 0.0
26/11:30am 14.1 11.6 9.7 75 2.3 E 13 17 7 9 1028.7 1028.7 0.0
26/11:00am 13.4 10.7 9.1 75 2.2 E 13 19 7 10 1029.0 1029.0 0.0
26/10:30am 13.5 10.0 8.8 73 2.4 ENE 17 24 9 13 1029.1 1029.1 0.0
26/10:00am 13.2 10.3 9.6 79 1.8 NE 15 20 8 11 1029.2 1029.2 0.0
26/09:30am 12.8 10.3 9.6 81 1.6 NE 13 17 7 9 1029.6 1029.6 0.0
26/09:00am 12.8 9.6 10.0 83 1.4 E 17 20 9 11 1029.7 1029.7 0.0
26/08:30am 12.4 8.6 9.1 80 1.7 E 19 22 10 12 1029.5 1029.5 0.0
26/08:00am 12.4 8.9 8.9 79 1.7 E 17 22 9 12 1029.2 1029.2 0.0
26/07:30am 11.7 8.5 8.6 81 1.5 E 15 19 8 10 1029.2 1029.2 0.0
26/07:00am 11.3 8.6 8.9 85 1.2 E 13 17 7 9 1028.8 1028.8 0.0
26/06:30am 11.2 8.0 8.6 84 1.3 E 15 19 8 10 1028.5 1028.5 0.0
26/06:00am 11.1 8.0 9.0 87 1.0 E 15 22 8 12 1028.4 1028.4 0.0
26/05:30am 10.9 8.0 9.5 91 0.7 ENE 15 20 8 11 1028.3 1028.3 0.0
26/05:00am 10.4 8.4 8.8 90 0.8 NE 9 15 5 8 1028.4 1028.4 0.0
26/04:30am 10.8 8.5 8.9 88 0.9 NE 11 15 6 8 1028.5 1028.5 0.0
26/04:00am 11.7 9.6 9.6 87 1.1 NNE 11 17 6 9 1028.6 1028.6 0.0
26/03:30am 12.4 9.9 9.8 84 1.3 NE 13 17 7 9 1028.6 1028.6 0.0
26/03:00am 12.2 7.9 9.4 83 1.4 E 22 28 12 15 1028.7 1028.7 0.0
26/02:30am 12.3 8.0 9.5 83 1.4 E 22 28 12 15 1028.8 1028.8 0.0
26/02:00am 12.4 7.7 9.4 82 1.5 E 24 32 13 17 1029.0 1029.0 0.0
26/01:30am 12.3 7.2 9.3 82 1.5 E 26 32 14 17 1029.1 1029.1 0.0
26/01:00am 12.6 8.7 9.6 82 1.5 E 20 28 11 15 1029.2 1029.2 0.0
26/12:30am 12.7 9.3 9.3 80 1.7 ESE 17 28 9 15 1029.4 1029.4 0.0
26/12:00am 12.8 9.9 9.6 81 1.6 ESE 15 24 8 13 1029.7 1029.7 0.0
 
Date/Time
EST
Temp
°C
App
Temp
°C
Dew
Point
Rel
Hum
%
Delta-T
°C
Wind Press
QNH
hPa
Press
MSL
hPa
Rain
since 9 am
mm
Dir
 
Spd
km/h
Gust
km/h
Spd
kts
Gust
kts
25/11:30pm 12.6 9.6 9.2 80 1.7 ESE 15 22 8 12 1029.8 1029.8 0.0
25/11:00pm 12.5 9.6 9.5 82 1.5 ESE 15 26 8 14 1029.9 1029.9 0.0
25/10:30pm 12.4 8.6 9.1 80 1.7 ESE 19 26 10 14 1030.0 1030.0 0.0
25/10:00pm 12.4 8.6 9.1 80 1.6 ESE 19 30 10 16 1030.0 1030.0 0.0
25/09:30pm 12.3 8.9 9.0 80 1.7 ESE 17 26 9 14 1030.1 1030.1 0.0
25/09:00pm 12.4 9.0 9.2 81 1.6 ESE 17 28 9 15 1030.0 1030.0 0.0
25/08:30pm 12.3 8.9 9.1 81 1.6 ESE 17 26 9 14 1029.9 1029.9 0.0
25/08:00pm 12.4 8.6 9.2 81 1.6 ESE 19 30 10 16 1029.8 1029.8 0.0
25/07:30pm 12.4 9.0 9.2 81 1.6 ESE 17 30 9 16 1029.8 1029.8 0.0
25/07:00pm 12.3 8.5 9.1 81 1.6 SE 19 26 10 14 1029.8 1029.8 0.0

Other Formats:

Comma delimited format used in spreadsheet applications
http://www.bom.gov.au/fwo/IDV60801/IDV60801.94826.axf

JavaScript Object Notation format (JSON) in row-major order
http://www.bom.gov.au/fwo/IDV60801/IDV60801.94826.json